createdAt,value
2018-02-14T00:07:03.928Z,99930
2018-02-14T00:17:05.608Z,99936
2018-02-14T00:27:07.313Z,99942
2018-02-14T00:37:08.859Z,99942
2018-02-14T00:47:10.501Z,99956
2018-02-14T00:57:14.601Z,99959
2018-02-14T01:07:20.382Z,99967
2018-02-14T01:17:22.917Z,99968
2018-02-14T01:27:24.550Z,99980
2018-02-14T01:37:26.821Z,99986
2018-02-14T01:47:28.345Z,99977
2018-02-14T01:57:29.950Z,99973
2018-02-14T02:07:31.457Z,99981
2018-02-14T02:17:33.036Z,99998
2018-02-14T02:27:34.575Z,100007
2018-02-14T02:37:37.217Z,100001
2018-02-14T02:47:38.721Z,100019
2018-02-14T02:57:40.288Z,100025
2018-02-14T03:07:41.836Z,100029
2018-02-14T03:17:43.392Z,100023
2018-02-14T03:27:45.685Z,100028
2018-02-14T03:37:47.294Z,100039
2018-02-14T03:47:48.802Z,100040
2018-02-14T03:57:50.567Z,100051
2018-02-14T04:07:52.144Z,100063
2018-02-14T04:17:53.724Z,100077
2018-02-14T04:27:56.033Z,100087
2018-02-14T04:37:58.361Z,100105
2018-02-14T04:47:59.928Z,100112
2018-02-14T04:58:01.540Z,100120
2018-02-14T05:08:03.146Z,100138
2018-02-14T05:18:04.657Z,100147
2018-02-14T05:28:06.924Z,100158
2018-02-14T05:38:08.473Z,100179
2018-02-14T05:48:11.112Z,100203
2018-02-14T05:58:12.753Z,100196
2018-02-14T06:08:14.278Z,100211
2018-02-14T06:18:15.842Z,100211
2018-02-14T06:28:17.470Z,100231
2018-02-14T06:38:19.023Z,100229
2018-02-14T06:48:20.578Z,100248
2018-02-14T06:58:22.162Z,100251
2018-02-14T07:08:23.798Z,100254
2018-02-14T07:18:26.078Z,100261
2018-02-14T07:28:27.681Z,100280
2018-02-14T07:38:29.253Z,100294
2018-02-14T07:48:30.781Z,100297
2018-02-14T07:58:32.325Z,100319
2018-02-14T08:08:34.582Z,100330
2018-02-14T08:18:36.184Z,100318
2018-02-14T08:28:37.828Z,100334
2018-02-14T08:38:40.211Z,100343
2018-02-14T08:48:41.826Z,100360
2018-02-14T08:58:43.360Z,100368
2018-02-14T09:08:45.639Z,100387
2018-02-14T09:18:47.154Z,100389
2018-02-14T09:28:48.784Z,100393
2018-02-14T09:38:50.349Z,100394
2018-02-14T09:48:51.933Z,100413
2018-02-14T09:58:53.544Z,100408
2018-02-14T10:08:55.021Z,100429
2018-02-14T10:18:56.629Z,100441
2018-02-14T10:28:58.226Z,100446
2018-02-14T10:38:59.950Z,100426
2018-02-14T10:49:01.549Z,100411
2018-02-14T10:59:03.213Z,100418
2018-02-14T11:09:04.792Z,100408
2018-02-14T11:19:06.270Z,100411
2018-02-14T11:29:07.987Z,100402
2018-02-14T11:39:10.310Z,100399
2018-02-14T11:49:11.872Z,100403
2018-02-14T11:59:13.436Z,100402
2018-02-14T12:09:15.117Z,100384
2018-02-14T12:19:16.697Z,100391
2018-02-14T12:29:18.998Z,100384
2018-02-14T12:39:20.533Z,100390
2018-02-14T12:49:22.116Z,100381
2018-02-14T12:59:24.704Z,100377
2018-02-14T13:09:26.336Z,100372
2018-02-14T13:19:27.896Z,100378
2018-02-14T13:29:29.483Z,100370
2018-02-14T13:39:31.801Z,100369
2018-02-14T13:49:33.320Z,100361
2018-02-14T13:59:35.007Z,100343
2018-02-14T14:09:36.617Z,100339
2018-02-14T14:19:38.203Z,100339
2018-02-14T14:29:40.046Z,100337
2018-02-14T14:39:42.580Z,100342
2018-02-14T14:49:44.220Z,100357
2018-02-14T14:59:45.824Z,100341
2018-02-14T15:09:47.373Z,100350
2018-02-14T15:19:48.984Z,100336
2018-02-14T15:29:50.554Z,100347
2018-02-14T15:39:52.010Z,100334
2018-02-14T15:49:53.572Z,100335
2018-02-14T15:59:55.157Z,100350
2018-02-14T16:09:56.681Z,100347
2018-02-14T16:20:00.310Z,100362
2018-02-14T16:30:01.910Z,100379
2018-02-14T16:40:03.539Z,100390
2018-02-14T16:50:05.901Z,100389
2018-02-14T17:00:07.513Z,100396
2018-02-14T17:10:09.137Z,100408
2018-02-14T17:20:10.714Z,100409
2018-02-14T17:30:12.264Z,100413
2018-02-14T17:40:14.568Z,100416
2018-02-14T17:50:16.188Z,100429
2018-02-14T18:00:19.173Z,100437
2018-02-14T18:10:20.719Z,100442
2018-02-14T18:20:23.016Z,100476
2018-02-14T18:30:24.648Z,100468
2018-02-14T18:40:26.224Z,100460
2018-02-14T18:50:27.858Z,100434
2018-02-14T19:00:29.462Z,100439
2018-02-14T19:10:31.210Z,100428
2018-02-14T19:20:32.806Z,100443
2018-02-14T19:30:34.383Z,100463
2018-02-14T19:40:35.974Z,100464
2018-02-14T19:50:37.548Z,100443
2018-02-14T20:00:39.153Z,100428
2018-02-14T20:10:41.469Z,100436
2018-02-14T20:20:43.808Z,100443
2018-02-14T20:30:45.401Z,100452
2018-02-14T20:40:46.977Z,100448
2018-02-14T20:50:48.644Z,100437
2018-02-14T21:00:50.385Z,100440
2018-02-14T21:10:52.735Z,100444
2018-02-14T21:20:54.297Z,100422
2018-02-14T21:30:55.887Z,100407
2018-02-14T21:40:57.531Z,100390
2018-02-14T21:51:01.981Z,100373
2018-02-14T22:01:06.053Z,100382
2018-02-14T22:11:08.821Z,100377
2018-02-14T22:21:10.379Z,100381
2018-02-14T22:31:12.314Z,100375
2018-02-14T22:41:13.872Z,100383
2018-02-14T22:51:16.181Z,100372
2018-02-14T23:01:17.738Z,100375
2018-02-14T23:11:19.275Z,100357
2018-02-14T23:21:20.895Z,100355
2018-02-14T23:31:23.178Z,100355
2018-02-14T23:41:24.750Z,100339
2018-02-14T23:51:26.348Z,100323
